Time;durP1;ratioP1;P1;durP2;ratioP2;P2;SDS_P1;SDS_P2;PMS_P1;PMS_P2;Temp;Humidity;BMP_temperature;BMP_pressure;BME280_temperature;BME280_humidity;BME280_pressure;Samples;Min_cycle;Max_cycle;Signal;HPM_P1;HPM_P2
2021/10/16 04:02:23;;;;;;;12.60;9.93;;;10.30;99.90;;;;;;6244029;22;20493;-73
2021/10/16 04:04:49;;;;;;;14.77;10.87;;;10.30;99.90;;;;;;6246664;23;20852;-73
2021/10/16 04:07:16;;;;;;;13.90;12.50;;;10.30;99.90;;;;;;6246946;23;20410;-73
2021/10/16 04:09:43;;;;;;;14.27;11.67;;;10.30;99.90;;;;;;6247309;23;20418;-73
2021/10/16 04:12:09;;;;;;;14.77;13.37;;;10.20;99.90;;;;;;6247012;22;20430;-73
2021/10/16 04:14:37;;;;;;;14.30;12.83;;;10.20;99.90;;;;;;6247442;23;20438;-73
2021/10/16 04:17:05;;;;;;;15.00;13.57;;;10.10;99.90;;;;;;6247071;23;20403;-73
2021/10/16 04:19:33;;;;;;;14.00;12.70;;;10.00;99.90;;;;;;6249082;23;20752;-73
2021/10/16 04:22:00;;;;;;;13.50;12.30;;;10.00;99.90;;;;;;6248810;22;20431;-73
2021/10/16 04:24:26;;;;;;;14.70;11.47;;;10.00;99.90;;;;;;6248822;23;20430;-73
2021/10/16 04:26:53;;;;;;;12.90;11.60;;;10.00;99.90;;;;;;6248811;23;20415;-73
2021/10/16 04:29:20;;;;;;;13.40;11.90;;;9.90;99.90;;;;;;6248776;23;20410;-73
2021/10/16 04:31:46;;;;;;;12.53;11.27;;;9.90;99.90;;;;;;6248964;22;20437;-73
2021/10/16 04:34:13;;;;;;;13.10;11.50;;;9.90;99.90;;;;;;6248495;23;20950;-73
2021/10/16 04:36:41;;;;;;;14.10;12.70;;;9.90;99.90;;;;;;6249538;23;20415;-73
2021/10/16 04:39:08;;;;;;;13.73;12.33;;;9.90;99.90;;;;;;6250443;23;20415;-73
2021/10/16 04:41:35;;;;;;;13.30;11.97;;;10.00;99.90;;;;;;6250892;22;20442;-72
2021/10/16 04:44:04;;;;;;;15.37;13.10;;;10.00;99.90;;;;;;6249951;23;20413;-73
2021/10/16 04:46:31;;;;;;;13.60;12.20;;;10.00;99.90;;;;;;6249737;23;20418;-73
2021/10/16 04:48:58;;;;;;;12.87;11.77;;;10.00;99.90;;;;;;6249093;23;20410;-73
2021/10/16 04:51:25;;;;;;;15.57;13.13;;;10.00;99.90;;;;;;6248774;22;20431;-73
2021/10/16 04:53:53;;;;;;;13.50;12.30;;;10.10;99.90;;;;;;6248555;23;20430;-73
2021/10/16 04:56:19;;;;;;;13.70;12.27;;;10.10;99.90;;;;;;6258644;23;20414;-73
2021/10/16 04:58:46;;;;;;;13.53;12.23;;;10.10;99.90;;;;;;6248566;23;20418;-73
2021/10/16 05:01:13;;;;;;;16.03;12.30;;;10.20;99.90;;;;;;6248356;22;20461;-73
2021/10/16 05:03:39;;;;;;;13.37;12.17;;;10.20;99.90;;;;;;6248437;23;20411;-73
2021/10/16 05:06:06;;;;;;;13.70;12.30;;;10.30;99.90;;;;;;6248589;23;20411;-74
2021/10/16 05:08:33;;;;;;;14.60;12.47;;;10.20;99.90;;;;;;6248781;23;20421;-73
2021/10/16 05:11:02;;;;;;;15.53;12.53;;;10.20;99.90;;;;;;6248522;22;20434;-73
2021/10/16 05:13:28;;;;;;;14.30;11.87;;;10.20;99.90;;;;;;6248110;23;20434;-73
2021/10/16 05:15:55;;;;;;;13.93;12.60;;;10.20;99.90;;;;;;6247931;23;20867;-73
2021/10/16 05:18:23;;;;;;;13.33;11.90;;;10.30;99.90;;;;;;6248349;23;20433;-73
2021/10/16 05:20:50;;;;;;;13.00;11.80;;;10.30;99.90;;;;;;6248047;22;20526;-73
2021/10/16 05:23:17;;;;;;;12.97;11.27;;;10.40;99.90;;;;;;6248299;23;20411;-73
2021/10/16 05:25:44;;;;;;;12.30;11.10;;;10.40;99.90;;;;;;6248251;23;20737;-73
2021/10/16 05:28:12;;;;;;;12.57;11.57;;;10.40;99.90;;;;;;6248071;23;20422;-74
2021/10/16 05:30:38;;;;;;;12.67;11.37;;;10.40;99.90;;;;;;6247947;22;21005;-73
2021/10/16 05:33:05;;;;;;;11.83;10.67;;;10.40;99.90;;;;;;6247825;23;20786;-73
2021/10/16 05:35:32;;;;;;;11.60;10.70;;;10.40;99.90;;;;;;6247742;23;20435;-73
2021/10/16 05:37:59;;;;;;;13.10;11.80;;;10.40;99.90;;;;;;6247916;23;20422;-73
2021/10/16 05:40:26;;;;;;;13.43;12.03;;;10.40;99.90;;;;;;6247996;22;20415;-73
2021/10/16 05:42:53;;;;;;;17.50;13.17;;;10.40;99.90;;;;;;6248313;23;20410;-73
2021/10/16 05:45:21;;;;;;;13.23;11.90;;;10.40;99.90;;;;;;6248409;23;20407;-73
2021/10/16 05:47:48;;;;;;;13.97;12.57;;;10.40;99.90;;;;;;6248343;23;20417;-74
2021/10/16 05:50:14;;;;;;;15.03;12.07;;;10.40;99.90;;;;;;6248215;22;20411;-73
2021/10/16 05:52:41;;;;;;;13.80;12.40;;;10.30;99.90;;;;;;6248112;23;20418;-72
2021/10/16 05:55:09;;;;;;;13.77;12.50;;;10.20;99.90;;;;;;6248062;23;20497;-72
2021/10/16 05:57:36;;;;;;;13.07;11.87;;;10.30;99.90;;;;;;6249063;23;20434;-72
2021/10/16 06:00:05;;;;;;;13.43;11.63;;;10.30;99.90;;;;;;6248268;23;20395;-72
2021/10/16 06:02:33;;;;;;;13.03;11.73;;;10.40;99.90;;;;;;6247607;22;20446;-72
2021/10/16 06:05:00;;;;;;;13.50;11.50;;;10.40;99.90;;;;;;6248152;23;20406;-72
2021/10/16 06:07:26;;;;;;;13.87;12.57;;;10.40;99.90;;;;;;6248325;23;20395;-73
2021/10/16 06:09:53;;;;;;;12.40;11.40;;;10.40;99.90;;;;;;6247822;23;20411;-72
2021/10/16 06:12:20;;;;;;;12.13;10.93;;;10.40;99.90;;;;;;6247769;22;20938;-72
2021/10/16 06:14:46;;;;;;;12.90;11.70;;;10.50;99.90;;;;;;6248793;23;20438;-72
2021/10/16 06:17:13;;;;;;;12.70;11.57;;;10.50;99.90;;;;;;6248797;23;20419;-72
2021/10/16 06:19:44;;;;;;;20.10;11.50;;;10.50;99.90;;;;;;6248472;23;20411;-73
2021/10/16 06:22:11;;;;;;;12.80;11.27;;;10.50;99.90;;;;;;6247938;22;20435;-73
2021/10/16 06:24:38;;;;;;;12.20;11.10;;;10.50;99.90;;;;;;6248235;23;20883;-70
2021/10/16 06:27:05;;;;;;;11.50;10.50;;;10.50;99.90;;;;;;6248453;23;20415;-73
2021/10/16 06:29:32;;;;;;;12.50;11.20;;;10.50;99.90;;;;;;6248513;23;20411;-70
2021/10/16 06:31:58;;;;;;;13.90;11.40;;;10.50;99.90;;;;;;6248694;22;20430;-74
2021/10/16 06:34:25;;;;;;;11.50;10.50;;;10.60;99.90;;;;;;6247871;23;20431;-73
2021/10/16 06:36:53;;;;;;;12.77;11.43;;;10.60;99.90;;;;;;6247827;23;20411;-73
2021/10/16 06:39:20;;;;;;;12.13;11.13;;;10.70;99.90;;;;;;6247989;23;20427;-73
2021/10/16 06:41:46;;;;;;;11.30;10.20;;;10.80;99.90;;;;;;6247511;22;20438;-74
2021/10/16 06:44:13;;;;;;;11.40;10.40;;;10.80;99.90;;;;;;6247609;23;20406;-73
2021/10/16 06:46:40;;;;;;;11.13;10.20;;;10.80;99.90;;;;;;6247507;23;20743;-73
2021/10/16 06:49:06;;;;;;;11.40;10.30;;;10.80;99.90;;;;;;6247256;23;20414;-73
2021/10/16 06:51:33;;;;;;;12.63;11.33;;;10.90;99.90;;;;;;6247121;22;20752;-73
2021/10/16 06:54:02;;;;;;;11.53;10.60;;;11.00;99.90;;;;;;6247262;23;20431;-74
2021/10/16 06:56:29;;;;;;;12.60;11.40;;;11.10;99.90;;;;;;6247149;23;20741;-73
2021/10/16 06:58:56;;;;;;;13.00;11.80;;;11.10;99.90;;;;;;6246665;23;20414;-74
2021/10/16 07:01:22;;;;;;;25.13;11.37;;;11.20;99.90;;;;;;6246582;22;20443;-73
2021/10/16 07:03:49;;;;;;;11.50;10.40;;;11.20;99.90;;;;;;6247121;23;20414;-73
2021/10/16 07:06:18;;;;;;;12.53;11.43;;;11.30;99.90;;;;;;6247518;23;20414;-74
2021/10/16 07:08:44;;;;;;;14.23;12.43;;;11.40;99.90;;;;;;6247254;23;20411;-74
2021/10/16 07:11:13;;;;;;;12.97;11.83;;;11.40;99.90;;;;;;6247049;22;20782;-73
2021/10/16 07:13:39;;;;;;;11.90;10.63;;;11.40;99.90;;;;;;6247163;23;20423;-74
2021/10/16 07:16:06;;;;;;;13.37;12.07;;;11.50;99.90;;;;;;6246749;23;20407;-74
2021/10/16 07:18:33;;;;;;;12.83;11.47;;;11.60;99.90;;;;;;6246642;23;20895;-74
2021/10/16 07:20:59;;;;;;;17.60;12.37;;;11.60;99.90;;;;;;6246857;22;20433;-74
2021/10/16 07:23:27;;;;;;;15.73;12.70;;;11.60;99.90;;;;;;6247005;23;20411;-73
2021/10/16 07:25:54;;;;;;;14.50;12.70;;;11.70;99.90;;;;;;6246905;23;20399;-73
2021/10/16 07:28:22;;;;;;;15.60;14.20;;;11.80;99.90;;;;;;6246862;23;20406;-73
2021/10/16 07:30:49;;;;;;;15.33;13.77;;;11.70;99.90;;;;;;6246519;22;20489;-72
2021/10/16 07:33:16;;;;;;;15.13;13.77;;;11.70;99.90;;;;;;6246828;23;20429;-72
2021/10/16 07:35:43;;;;;;;14.50;12.90;;;11.80;99.90;;;;;;6246553;23;20423;-72
2021/10/16 07:38:11;;;;;;;16.03;14.50;;;11.90;99.90;;;;;;6246721;23;20422;-72
2021/10/16 07:40:38;;;;;;;13.97;12.57;;;11.90;99.90;;;;;;6246784;22;20435;-73
2021/10/16 07:43:05;;;;;;;15.63;14.07;;;12.00;99.90;;;;;;6246810;23;20772;-73
2021/10/16 07:45:33;;;;;;;16.23;14.53;;;12.00;99.90;;;;;;6246937;23;20420;-73
2021/10/16 07:48:00;;;;;;;15.70;12.93;;;12.10;99.90;;;;;;6246711;23;20414;-73
2021/10/16 07:50:27;;;;;;;15.60;14.10;;;12.20;99.90;;;;;;6246481;22;20415;-73
2021/10/16 07:52:54;;;;;;;15.13;13.63;;;12.20;99.90;;;;;;6246451;23;20411;-73
2021/10/16 07:55:21;;;;;;;16.00;14.40;;;12.30;99.90;;;;;;6247122;23;20419;-74
2021/10/16 07:57:47;;;;;;;16.53;14.93;;;12.20;99.90;;;;;;6247283;23;20441;-72
2021/10/16 08:00:15;;;;;;;15.60;14.20;;;12.30;99.90;;;;;;6257449;22;20422;-75
2021/10/16 08:02:43;;;;;;;15.23;13.63;;;12.30;99.90;;;;;;6257073;23;20407;-76
2021/10/16 08:05:14;;;;;;;15.30;13.80;;;12.40;99.90;;;;;;6246609;23;20414;-75
2021/10/16 08:07:40;;;;;;;17.27;13.30;;;12.40;99.90;;;;;;6246498;23;20859;-76
2021/10/16 08:10:08;;;;;;;15.10;13.60;;;12.60;99.90;;;;;;6246603;23;20411;-76
2021/10/16 08:12:35;;;;;;;16.53;13.97;;;12.70;99.90;;;;;;6246503;22;20431;-75
2021/10/16 08:15:02;;;;;;;15.40;13.80;;;12.70;99.90;;;;;;6246982;23;20435;-75
2021/10/16 08:17:29;;;;;;;16.43;12.10;;;12.80;99.90;;;;;;6246330;23;20895;-73
2021/10/16 08:19:57;;;;;;;15.27;13.77;;;12.70;99.90;;;;;;6246731;23;20410;-74
2021/10/16 08:22:24;;;;;;;16.30;13.30;;;12.80;99.90;;;;;;6246739;22;20440;-75
2021/10/16 08:24:50;;;;;;;15.60;14.00;;;12.90;99.90;;;;;;6246407;23;20891;-75
2021/10/16 08:27:17;;;;;;;13.80;12.50;;;12.90;99.90;;;;;;6246542;23;20421;-75
2021/10/16 08:29:44;;;;;;;15.17;13.77;;;12.90;99.90;;;;;;6246610;23;20415;-76
2021/10/16 08:32:10;;;;;;;15.43;13.93;;;12.90;99.90;;;;;;6246232;22;20445;-75
2021/10/16 08:34:37;;;;;;;15.73;14.33;;;12.90;99.90;;;;;;6246550;23;20438;-75
2021/10/16 08:37:05;;;;;;;16.30;14.77;;;12.90;99.90;;;;;;6246501;23;20510;-75
2021/10/16 08:39:32;;;;;;;15.93;14.53;;;12.80;99.90;;;;;;6246330;23;20918;-75
2021/10/16 08:41:59;;;;;;;18.50;13.50;;;12.80;99.90;;;;;;6245921;22;20435;-75
2021/10/16 08:44:25;;;;;;;16.60;14.93;;;12.90;99.90;;;;;;6246396;23;20411;-75
2021/10/16 08:46:57;;;;;;;17.03;15.37;;;12.90;99.90;;;;;;6246255;23;20780;-75
2021/10/16 08:49:27;;;;;;;16.50;15.00;;;12.80;99.90;;;;;;6246456;23;20402;-76
2021/10/16 08:51:53;;;;;;;16.67;15.13;;;12.80;99.90;;;;;;6246445;22;20785;-75
2021/10/16 08:54:21;;;;;;;15.47;13.93;;;12.70;99.90;;;;;;6246276;23;20411;-75
2021/10/16 08:56:48;;;;;;;16.00;14.33;;;12.70;99.90;;;;;;6246528;23;20469;-75
2021/10/16 08:59:15;;;;;;;17.00;15.20;;;12.80;99.90;;;;;;6245971;23;20418;-75
2021/10/16 09:01:58;;;;;;;18.20;15.27;;;12.70;99.90;;;;;;6245945;22;20444;-75
2021/10/16 09:04:26;;;;;;;19.23;15.20;;;12.80;99.90;;;;;;6247858;23;20410;-75
2021/10/16 09:06:52;;;;;;;19.03;17.03;;;12.90;99.90;;;;;;6248451;23;20411;-75
2021/10/16 09:09:24;;;;;;;16.30;14.80;;;12.90;99.90;;;;;;6248284;23;20785;-75
2021/10/16 09:11:54;;;;;;;18.20;16.17;;;13.00;99.90;;;;;;6247779;22;20935;-75
2021/10/16 09:14:22;;;;;;;18.37;16.63;;;13.10;99.90;;;;;;6247690;23;20505;-75
2021/10/16 09:16:50;;;;;;;19.80;17.70;;;13.20;99.90;;;;;;6248151;23;20414;-75
2021/10/16 09:19:19;;;;;;;18.67;16.90;;;13.30;99.90;;;;;;6248427;23;20418;-74
2021/10/16 09:21:50;;;;;;;23.20;18.70;;;13.30;99.90;;;;;;6248440;22;20431;-75
2021/10/16 09:24:21;;;;;;;20.93;18.90;;;13.30;99.90;;;;;;6248227;23;20478;-75
2021/10/16 09:26:51;;;;;;;22.93;20.13;;;13.00;99.90;;;;;;6248466;23;20391;-75
2021/10/16 09:29:19;;;;;;;19.73;17.70;;;13.00;99.90;;;;;;6248074;23;20395;-75
2021/10/16 09:31:49;;;;;;;21.73;19.40;;;13.20;99.90;;;;;;6247998;22;20435;-75
2021/10/16 09:34:23;;;;;;;19.70;17.70;;;13.20;99.90;;;;;;6247970;23;20719;-75
2021/10/16 09:36:50;;;;;;;22.37;20.00;;;13.20;99.90;;;;;;6248106;23;20448;-75
2021/10/16 09:39:19;;;;;;;24.93;21.70;;;13.20;99.90;;;;;;6247971;23;20497;-75
2021/10/16 09:41:47;;;;;;;21.63;19.43;;;13.10;99.90;;;;;;6247743;22;20427;-75
2021/10/16 09:44:23;;;;;;;24.50;19.67;;;13.20;99.90;;;;;;6247928;23;20391;-75
2021/10/16 09:47:04;;;;;;;24.77;22.00;;;13.20;99.90;;;;;;6247986;23;20406;-75
2021/10/16 09:49:34;;;;;;;23.27;20.87;;;13.20;99.90;;;;;;6248021;23;20406;-75
2021/10/16 09:52:01;;;;;;;23.10;20.70;;;13.10;99.90;;;;;;6247577;22;20431;-75
2021/10/16 09:54:30;;;;;;;22.07;19.63;;;13.10;99.90;;;;;;6249009;23;20407;-75
2021/10/16 09:56:59;;;;;;;22.70;20.20;;;13.20;99.90;;;;;;6247949;23;20399;-75
2021/10/16 09:59:27;;;;;;;27.30;23.03;;;13.30;99.90;;;;;;6247853;23;20406;-74
2021/10/16 10:01:54;;;;;;;24.40;21.80;;;13.10;99.90;;;;;;6247390;22;20445;-75
2021/10/16 10:04:24;;;;;;;24.57;21.67;;;13.10;99.90;;;;;;6247798;23;20413;-75
2021/10/16 10:06:52;;;;;;;23.43;20.90;;;13.00;99.90;;;;;;6247989;23;20403;-75
2021/10/16 10:09:20;;;;;;;24.70;21.50;;;13.10;99.90;;;;;;6247935;23;20407;-75
2021/10/16 10:11:48;;;;;;;27.50;21.93;;;13.10;99.90;;;;;;6247593;22;20461;-74
2021/10/16 10:14:20;;;;;;;26.37;22.33;;;13.00;99.90;;;;;;6247887;23;20410;-74
2021/10/16 10:16:48;;;;;;;26.07;23.00;;;13.00;99.90;;;;;;6247989;23;20422;-74
2021/10/16 10:19:17;;;;;;;25.20;21.80;;;13.00;99.90;;;;;;6251322;23;20411;-71
2021/10/16 10:21:44;;;;;;;25.40;21.83;;;13.00;99.90;;;;;;6251977;22;20437;-71
2021/10/16 10:24:12;;;;;;;24.07;21.47;;;13.10;99.90;;;;;;6250519;23;20410;-72
2021/10/16 10:26:40;;;;;;;23.90;20.80;;;12.90;99.90;;;;;;6249450;23;20413;-70
2021/10/16 10:29:08;;;;;;;24.00;21.40;;;12.90;99.90;;;;;;6248454;23;20787;-71
2021/10/16 10:31:58;;;;;;;24.70;22.10;;;13.00;99.90;;;;;;6248066;22;20431;-71
2021/10/16 10:34:29;;;;;;;23.43;21.03;;;13.00;99.90;;;;;;6248076;23;20426;-71
2021/10/16 10:36:58;;;;;;;24.90;21.90;;;13.00;99.90;;;;;;6247736;23;20470;-71
2021/10/16 10:39:50;;;;;;;27.53;22.20;;;13.10;99.90;;;;;;6247697;23;20447;-71
2021/10/16 10:42:45;;;;;;;24.67;22.17;;;13.10;99.90;;;;;;6247919;22;20431;-71
2021/10/16 10:45:28;;;;;;;25.27;21.87;;;12.90;99.90;;;;;;6248202;23;20387;-71
2021/10/16 10:48:03;;;;;;;25.80;23.10;;;13.00;99.90;;;;;;6248224;23;20408;-71
2021/10/16 10:51:01;;;;;;;25.50;22.90;;;13.00;99.90;;;;;;6247776;22;20398;-71
2021/10/16 10:53:31;;;;;;;24.57;21.97;;;13.00;99.90;;;;;;6248002;23;20445;-71
2021/10/16 10:56:00;;;;;;;28.20;23.33;;;13.10;99.90;;;;;;6247562;23;20745;-71
2021/10/16 10:58:58;;;;;;;24.90;22.27;;;13.20;99.90;;;;;;6247556;23;20434;-71
2021/10/16 11:01:53;;;;;;;25.10;21.60;;;13.30;99.90;;;;;;6247150;22;20443;-71
2021/10/16 11:04:39;;;;;;;25.80;21.50;;;13.50;99.90;;;;;;6247019;23;20931;-71
2021/10/16 11:07:09;;;;;;;25.53;20.97;;;13.60;99.90;;;;;;6247643;23;20391;-71
2021/10/16 11:09:36;;;;;;;24.20;21.80;;;13.70;99.90;;;;;;6247027;23;20402;-71
2021/10/16 11:12:03;;;;;;;25.23;22.70;;;13.80;99.90;;;;;;6247376;22;20431;-71
2021/10/16 11:14:31;;;;;;;29.60;22.90;;;14.00;99.90;;;;;;6246774;23;20895;-71
2021/10/16 11:17:00;;;;;;;25.07;21.53;;;14.10;99.90;;;;;;6256933;23;20434;-71
2021/10/16 11:19:27;;;;;;;21.97;19.77;;;14.30;99.90;;;;;;6247029;23;20469;-71
2021/10/16 11:21:57;;;;;;;24.10;21.50;;;14.40;99.90;;;;;;6246647;22;20430;-71
2021/10/16 11:24:25;;;;;;;23.97;21.50;;;14.50;99.90;;;;;;6247130;23;20415;-71
2021/10/16 11:26:56;;;;;;;23.03;20.60;;;14.70;99.90;;;;;;6247107;23;20441;-71
2021/10/16 11:29:31;;;;;;;22.67;20.47;;;14.90;99.90;;;;;;6247112;23;20411;-71
2021/10/16 11:32:19;;;;;;;24.00;21.50;;;15.10;99.90;;;;;;6246664;22;20942;-72
2021/10/16 11:34:56;;;;;;;25.43;22.20;;;15.20;99.90;;;;;;6247193;23;20415;-72
2021/10/16 11:37:35;;;;;;;24.30;21.90;;;15.30;99.90;;;;;;6247022;23;20431;-72
2021/10/16 11:40:05;;;;;;;25.03;22.60;;;15.50;99.90;;;;;;6247152;23;20411;-72
2021/10/16 11:42:32;;;;;;;22.10;19.83;;;15.40;99.90;;;;;;6246975;22;20759;-73
2021/10/16 11:44:59;;;;;;;23.60;20.90;;;15.70;99.90;;;;;;6246791;23;20780;-72
2021/10/16 11:47:26;;;;;;;24.03;21.77;;;15.90;99.90;;;;;;6246563;23;20896;-72
2021/10/16 11:49:53;;;;;;;23.03;20.80;;;16.10;99.90;;;;;;6246997;23;20741;-72
2021/10/16 11:52:23;;;;;;;24.00;21.60;;;16.20;99.90;;;;;;6246775;22;20437;-77
2021/10/16 11:55:16;;;;;;;21.87;19.80;;;16.20;99.90;;;;;;6246525;23;20422;-76
2021/10/16 11:57:43;;;;;;;26.07;23.37;;;16.60;99.90;;;;;;6246940;23;20384;-74
2021/10/16 12:00:22;;;;;;;23.43;20.93;;;16.70;99.90;;;;;;6247215;23;20465;-74
2021/10/16 12:02:49;;;;;;;29.60;20.70;;;17.10;99.90;;;;;;6247043;23;20724;-72
2021/10/16 12:05:18;;;;;;;22.63;20.33;;;17.30;99.90;;;;;;6246564;23;20917;-71
2021/10/16 12:07:45;;;;;;;24.17;21.90;;;17.40;99.90;;;;;;6246924;23;20407;-71
2021/10/16 12:10:26;;;;;;;20.20;18.40;;;17.40;99.90;;;;;;6247012;23;20415;-75
2021/10/16 12:12:58;;;;;;;22.27;19.97;;;17.80;99.90;;;;;;6246870;23;20391;-75
2021/10/16 12:15:25;;;;;;;21.87;19.77;;;17.60;99.90;;;;;;6246972;23;20395;-71
2021/10/16 12:17:52;;;;;;;21.47;19.37;;;17.20;99.90;;;;;;6247046;23;20915;-72
2021/10/16 12:20:19;;;;;;;20.07;18.17;;;17.40;99.90;;;;;;6246414;22;20410;-72
2021/10/16 12:22:57;;;;;;;19.37;17.57;;;17.60;99.90;;;;;;6247268;23;20410;-72
2021/10/16 12:25:26;;;;;;;20.43;18.57;;;17.80;99.90;;;;;;6247445;23;20411;-71
2021/10/16 12:28:01;;;;;;;21.27;19.13;;;17.70;99.90;;;;;;6247705;23;20410;-72
2021/10/16 12:30:27;;;;;;;21.90;19.80;;;17.90;99.90;;;;;;6247117;22;20735;-72
2021/10/16 12:33:05;;;;;;;22.43;20.20;;;17.90;99.90;;;;;;6259166;23;20421;-71
2021/10/16 12:35:32;;;;;;;20.07;18.10;;;17.60;99.90;;;;;;6247155;23;20478;-72
2021/10/16 12:37:59;;;;;;;21.07;19.00;;;17.60;99.90;;;;;;6247678;23;20415;-71
2021/10/16 12:40:43;;;;;;;20.20;18.20;;;17.50;99.90;;;;;;6248874;22;20781;-72
2021/10/16 12:43:24;;;;;;;19.73;17.87;;;17.70;99.90;;;;;;6249142;23;20445;-72
2021/10/16 12:45:51;;;;;;;22.53;20.30;;;17.80;99.90;;;;;;6249544;23;20390;-71
2021/10/16 12:48:27;;;;;;;21.13;19.03;;;17.90;99.90;;;;;;6249119;23;20600;-72
2021/10/16 12:51:00;;;;;;;22.23;19.27;;;17.90;99.90;;;;;;6249088;22;20434;-72
2021/10/16 12:53:27;;;;;;;20.50;18.50;;;18.00;99.90;;;;;;6248555;23;20430;-72
2021/10/16 12:56:14;;;;;;;19.33;17.33;;;18.10;99.90;;;;;;6248559;23;20465;-71
2021/10/16 12:58:40;;;;;;;22.70;20.60;;;18.10;99.90;;;;;;6249074;23;20398;-72
2021/10/16 13:01:07;;;;;;;20.93;19.03;;;18.20;99.90;;;;;;6248156;22;20439;-71
2021/10/16 13:03:34;;;;;;;20.97;19.00;;;18.20;99.90;;;;;;6248623;23;20406;-71
2021/10/16 13:06:00;;;;;;;21.20;19.03;;;18.20;99.90;;;;;;6248523;23;20407;-71
2021/10/16 13:08:27;;;;;;;21.20;19.07;;;18.00;99.90;;;;;;6248969;23;20411;-71
2021/10/16 13:10:54;;;;;;;20.47;17.67;;;17.90;99.90;;;;;;6248883;22;20939;-72
2021/10/16 13:13:22;;;;;;;19.97;17.97;;;17.90;99.90;;;;;;6248652;23;20411;-72
2021/10/16 13:15:48;;;;;;;18.50;16.90;;;18.00;99.90;;;;;;6249280;23;20413;-71
2021/10/16 13:18:15;;;;;;;18.53;16.83;;;17.90;99.90;;;;;;6248424;23;20410;-71
2021/10/16 13:20:42;;;;;;;17.23;15.00;;;17.90;99.90;;;;;;6248742;22;20427;-75
2021/10/16 13:23:09;;;;;;;18.50;16.70;;;18.10;99.90;;;;;;6249379;23;20395;-76
2021/10/16 13:25:37;;;;;;;19.33;17.63;;;18.00;99.90;;;;;;6248978;23;20399;-72
2021/10/16 13:28:04;;;;;;;18.17;16.50;;;18.30;99.90;;;;;;6248606;23;20411;-72
2021/10/16 13:30:32;;;;;;;19.00;17.07;;;18.30;99.90;;;;;;6248445;22;20395;-73
2021/10/16 13:33:00;;;;;;;16.60;15.03;;;18.40;99.90;;;;;;6248481;23;20399;-72
2021/10/16 13:35:27;;;;;;;18.43;16.30;;;18.60;99.90;;;;;;6247940;23;20891;-72
2021/10/16 13:37:54;;;;;;;16.80;15.40;;;18.70;99.90;;;;;;6248525;23;20430;-72
2021/10/16 13:40:20;;;;;;;18.20;16.50;;;18.50;99.90;;;;;;6248452;22;20414;-72
2021/10/16 13:42:47;;;;;;;16.63;15.23;;;18.70;99.90;;;;;;6250446;23;20411;-71
2021/10/16 13:45:16;;;;;;;17.80;16.00;;;18.70;99.90;;;;;;6252310;23;20414;-71
2021/10/16 13:47:44;;;;;;;17.40;15.60;;;18.60;99.90;;;;;;6251235;23;20407;-70
2021/10/16 13:50:12;;;;;;;17.87;16.27;;;18.50;99.90;;;;;;6249863;23;20900;-71
2021/10/16 13:52:39;;;;;;;18.40;15.53;;;18.60;99.90;;;;;;6250201;22;20431;-71
2021/10/16 13:55:07;;;;;;;19.03;17.33;;;18.50;99.90;;;;;;6251348;23;20410;-71
2021/10/16 13:57:34;;;;;;;19.33;17.53;;;18.50;99.90;;;;;;6251197;23;20430;-71
2021/10/16 14:00:00;;;;;;;17.80;16.20;;;18.40;99.90;;;;;;6249947;23;20410;-71
2021/10/16 14:02:27;;;;;;;19.03;17.33;;;18.30;99.90;;;;;;6249928;22;20438;-71
2021/10/16 14:04:55;;;;;;;19.80;17.60;;;18.00;99.90;;;;;;6250408;23;20454;-74
2021/10/16 14:07:23;;;;;;;18.30;16.03;;;17.80;99.90;;;;;;6251548;23;20407;-71
2021/10/16 14:09:50;;;;;;;16.87;15.37;;;17.90;99.90;;;;;;6251585;23;20474;-70
2021/10/16 14:12:17;;;;;;;19.13;15.90;;;17.80;99.90;;;;;;6251554;22;20438;-69
2021/10/16 14:14:43;;;;;;;19.03;17.10;;;17.80;99.90;;;;;;6256330;23;20418;-69
2021/10/16 14:17:10;;;;;;;18.13;16.33;;;17.80;99.90;;;;;;6252302;23;20469;-68
2021/10/16 14:19:37;;;;;;;18.07;16.20;;;17.80;99.90;;;;;;6249009;23;20411;-68
2021/10/16 14:22:05;;;;;;;20.90;18.87;;;17.80;99.90;;;;;;6248828;22;20431;-71
2021/10/16 14:24:32;;;;;;;20.50;18.47;;;17.80;99.90;;;;;;6249057;23;20426;-71
2021/10/16 14:26:59;;;;;;;18.33;16.53;;;17.80;99.90;;;;;;6248257;23;20407;-71
2021/10/16 14:29:25;;;;;;;18.87;17.07;;;17.80;99.90;;;;;;6250342;23;20461;-70
2021/10/16 14:31:52;;;;;;;19.47;17.60;;;17.80;99.90;;;;;;6253132;22;20441;-70
2021/10/16 14:34:19;;;;;;;19.03;17.30;;;17.80;99.90;;;;;;6255545;23;20410;-71
2021/10/16 14:36:46;;;;;;;20.17;18.10;;;18.00;99.90;;;;;;6253290;23;20489;-71
2021/10/16 14:39:14;;;;;;;20.47;18.47;;;17.90;99.90;;;;;;6254757;23;20415;-68
2021/10/16 14:41:40;;;;;;;21.00;19.00;;;17.60;99.90;;;;;;6259421;22;20435;-69
2021/10/16 14:44:07;;;;;;;23.00;20.77;;;17.50;99.90;;;;;;6259074;23;20411;-68
2021/10/16 14:46:34;;;;;;;19.63;17.63;;;17.30;99.90;;;;;;6257118;23;20762;-69
2021/10/16 14:49:00;;;;;;;22.23;19.93;;;17.20;99.90;;;;;;6256711;23;20418;-69
2021/10/16 14:51:28;;;;;;;21.33;19.20;;;16.90;99.90;;;;;;6251786;22;20439;-70
2021/10/16 14:53:55;;;;;;;20.17;18.27;;;17.00;99.90;;;;;;6249362;23;20411;-70
2021/10/16 14:56:23;;;;;;;19.00;17.30;;;17.10;99.90;;;;;;6248952;23;20411;-70
2021/10/16 14:58:49;;;;;;;19.27;17.27;;;17.10;99.90;;;;;;6247733;23;20411;-70
2021/10/16 15:01:16;;;;;;;21.90;19.90;;;17.10;99.90;;;;;;6247102;22;20438;-70
2021/10/16 15:03:43;;;;;;;20.00;18.10;;;16.90;99.90;;;;;;6248435;23;20505;-69
2021/10/16 15:06:10;;;;;;;18.17;16.47;;;16.80;99.90;;;;;;6248614;23;20417;-69
2021/10/16 15:08:37;;;;;;;19.10;17.20;;;16.60;99.90;;;;;;6248382;23;20775;-68
2021/10/16 15:11:03;;;;;;;22.07;19.97;;;16.60;99.90;;;;;;6247307;22;20435;-68
2021/10/16 15:13:31;;;;;;;21.33;19.23;;;16.30;99.90;;;;;;6247622;23;20402;-68
2021/10/16 15:15:58;;;;;;;20.47;18.43;;;16.10;99.90;;;;;;6247490;23;20414;-68
2021/10/16 15:18:25;;;;;;;20.77;18.67;;;15.90;99.90;;;;;;6246820;23;20435;-68
2021/10/16 15:20:52;;;;;;;22.70;20.40;;;15.80;99.90;;;;;;6247662;22;20438;-68
2021/10/16 15:23:18;;;;;;;19.50;17.60;;;15.60;99.90;;;;;;6246721;23;20410;-68
2021/10/16 15:25:45;;;;;;;21.43;19.33;;;15.50;99.90;;;;;;6247159;23;20411;-68
2021/10/16 15:28:12;;;;;;;20.20;18.13;;;15.50;99.90;;;;;;6246542;23;20961;-68
2021/10/16 15:30:41;;;;;;;21.00;18.90;;;15.50;99.90;;;;;;6247502;22;20431;-68
2021/10/16 15:33:08;;;;;;;21.47;19.43;;;15.40;99.90;;;;;;6247100;23;20719;-68
2021/10/16 15:35:35;;;;;;;19.77;17.97;;;15.40;99.90;;;;;;6246990;23;20414;-68
2021/10/16 15:38:02;;;;;;;19.30;17.50;;;15.30;99.90;;;;;;6247350;23;20438;-66
2021/10/16 15:40:29;;;;;;;18.87;17.10;;;15.10;99.90;;;;;;6247190;22;20410;-68
2021/10/16 15:42:55;;;;;;;20.10;18.20;;;15.10;99.90;;;;;;6248972;23;20895;-69
2021/10/16 15:45:22;;;;;;;19.10;17.27;;;15.00;99.90;;;;;;6249121;23;20411;-69
2021/10/16 15:47:55;;;;;;;19.10;17.20;;;14.90;99.90;;;;;;6249583;23;20406;-69
2021/10/16 15:50:23;;;;;;;18.93;17.03;;;14.90;99.90;;;;;;6247738;22;20395;-69
2021/10/16 15:52:50;;;;;;;19.63;17.73;;;14.90;99.90;;;;;;6247180;23;20410;-70
2021/10/16 15:55:17;;;;;;;20.40;18.40;;;14.80;99.90;;;;;;6247041;23;20727;-69
2021/10/16 15:57:43;;;;;;;20.50;17.57;;;14.80;99.90;;;;;;6246677;23;20438;-69
2021/10/16 16:00:11;;;;;;;18.00;16.20;;;14.80;99.90;;;;;;6246595;23;20421;-70
2021/10/16 16:02:38;;;;;;;19.00;17.30;;;14.70;99.90;;;;;;6246343;22;20439;-69
2021/10/16 16:05:07;;;;;;;18.93;17.13;;;14.80;99.90;;;;;;6246417;23;20414;-70
2021/10/16 16:07:34;;;;;;;19.00;17.00;;;14.80;99.90;;;;;;6246467;23;20402;-69
2021/10/16 16:10:00;;;;;;;20.30;18.50;;;14.70;99.90;;;;;;6246297;23;20411;-69
2021/10/16 16:12:27;;;;;;;21.80;19.47;;;14.70;99.90;;;;;;6246578;22;20431;-69
2021/10/16 16:14:54;;;;;;;22.97;20.77;;;14.50;99.90;;;;;;6247978;23;20421;-69
2021/10/16 16:17:21;;;;;;;20.43;18.47;;;14.40;99.90;;;;;;6248092;23;20434;-69
2021/10/16 16:19:48;;;;;;;22.33;18.37;;;14.40;99.90;;;;;;6248603;23;20417;-69
2021/10/16 16:22:16;;;;;;;18.23;16.53;;;14.30;99.90;;;;;;6248528;22;20430;-69
2021/10/16 16:24:42;;;;;;;20.67;18.47;;;14.20;99.90;;;;;;6248425;23;20714;-69
2021/10/16 16:27:09;;;;;;;19.03;17.23;;;14.00;99.90;;;;;;6248615;23;20407;-69
2021/10/16 16:29:36;;;;;;;21.23;18.87;;;13.90;99.90;;;;;;6248620;23;20417;-69
2021/10/16 16:32:03;;;;;;;18.73;16.83;;;13.80;99.90;;;;;;6247893;22;20931;-67
2021/10/16 16:34:30;;;;;;;20.20;18.30;;;13.70;99.90;;;;;;6248330;23;20411;-70
2021/10/16 16:36:56;;;;;;;19.37;17.57;;;13.60;99.90;;;;;;6249413;23;20934;-70